createdAt,value
2023-02-16T00:02:01.169Z,-5.69
2023-02-16T00:04:32.863Z,-5.55
2023-02-16T00:07:01.770Z,-5.77
2023-02-16T00:09:36.310Z,-5.75
2023-02-16T00:12:27.188Z,-5.76
2023-02-16T00:14:55.584Z,-5.65
2023-02-16T00:17:29.317Z,-5.55
2023-02-16T00:19:58.139Z,-5.52
2023-02-16T00:22:27.649Z,-5.55
2023-02-16T00:24:58.181Z,-5.55
2023-02-16T00:27:26.678Z,-5.47
2023-02-16T00:29:55.107Z,-5.54
2023-02-16T00:32:24.683Z,-5.52
2023-02-16T00:34:54.634Z,-5.55
2023-02-16T00:37:23.490Z,-5.55
2023-02-16T00:39:51.892Z,-5.52
2023-02-16T00:42:24.128Z,-5.53
2023-02-16T00:44:54.718Z,-5.51
2023-02-16T00:47:25.982Z,-5.47
2023-02-16T00:49:56.244Z,-5.50
2023-02-16T00:52:38.209Z,-5.65
2023-02-16T00:55:08.610Z,-5.70
2023-02-16T00:57:41.059Z,-5.71
2023-02-16T01:00:17.352Z,-5.72
2023-02-16T01:02:46.807Z,-5.56
2023-02-16T01:05:15.577Z,-5.64
2023-02-16T01:08:01.477Z,-5.65
2023-02-16T01:10:48.202Z,-5.65
2023-02-16T01:13:18.673Z,-5.61
2023-02-16T01:15:49.638Z,-5.63
2023-02-16T01:18:19.514Z,-5.52
2023-02-16T01:20:48.282Z,-5.61
2023-02-16T01:23:16.826Z,-5.63
2023-02-16T01:25:47.766Z,-5.65
2023-02-16T01:28:23.803Z,-5.70
2023-02-16T01:30:52.969Z,-5.69
2023-02-16T01:33:22.412Z,-5.73
2023-02-16T01:35:51.559Z,-5.67
2023-02-16T01:38:21.384Z,-5.62
2023-02-16T01:40:54.152Z,-5.62
2023-02-16T01:43:26.358Z,-5.65
2023-02-16T01:46:03.470Z,-5.61
2023-02-16T01:48:32.835Z,-5.69
2023-02-16T01:51:06.813Z,-5.72
2023-02-16T01:53:39.215Z,-5.73
2023-02-16T01:56:17.527Z,-5.79
2023-02-16T01:58:49.942Z,-5.84
2023-02-16T02:01:44.025Z,-5.79
2023-02-16T02:04:33.665Z,-5.80
2023-02-16T02:07:02.552Z,-5.82
2023-02-16T02:09:37.180Z,-6.00
2023-02-16T02:12:13.822Z,-5.92
2023-02-16T02:14:46.054Z,-5.90
2023-02-16T02:17:17.856Z,-5.96
2023-02-16T02:19:58.763Z,-5.90
2023-02-16T02:23:21.869Z,-5.88
2023-02-16T02:26:15.653Z,-5.92
2023-02-16T02:28:49.835Z,-5.91
2023-02-16T02:31:23.170Z,-5.91
2023-02-16T02:33:57.756Z,-5.95
2023-02-16T02:36:28.041Z,-5.83
2023-02-16T02:39:06.010Z,-5.93
2023-02-16T02:41:57.862Z,-5.93
2023-02-16T02:44:30.788Z,-5.88
2023-02-16T02:46:59.362Z,-5.86
2023-02-16T02:49:27.710Z,-5.90
2023-02-16T02:51:56.161Z,-5.87
2023-02-16T02:54:46.853Z,-5.87
2023-02-16T02:57:36.054Z,-5.89
2023-02-16T03:00:25.680Z,-5.95
2023-02-16T03:03:06.302Z,-5.82
2023-02-16T03:05:36.025Z,-5.79
2023-02-16T03:08:14.434Z,-5.80
2023-02-16T03:11:03.436Z,-5.88
2023-02-16T03:13:34.888Z,-5.93
2023-02-16T03:16:07.360Z,-5.99
2023-02-16T03:18:54.429Z,-5.98
2023-02-16T03:21:40.270Z,-6.04
2023-02-16T03:24:28.322Z,-6.06
2023-02-16T03:27:14.874Z,-6.07
2023-02-16T03:29:43.540Z,-6.07
2023-02-16T03:32:13.432Z,-6.04
2023-02-16T03:34:41.860Z,-6.08
2023-02-16T03:37:10.301Z,-6.12
2023-02-16T03:39:52.489Z,-6.11
2023-02-16T03:42:22.160Z,-6.18
2023-02-16T03:44:50.644Z,-6.05
2023-02-16T03:47:20.494Z,-6.00
2023-02-16T03:49:48.971Z,-6.08
2023-02-16T03:52:17.353Z,-6.09
2023-02-16T03:54:45.848Z,-6.05
2023-02-16T03:57:14.157Z,-6.11
2023-02-16T03:59:44.704Z,-6.12
2023-02-16T04:02:17.467Z,-6.16
2023-02-16T04:04:47.398Z,-6.14
2023-02-16T04:07:15.724Z,-6.18
2023-02-16T04:09:44.147Z,-6.21
2023-02-16T04:12:30.342Z,-6.26
2023-02-16T04:15:00.670Z,-6.18
2023-02-16T04:17:29.129Z,-6.20
2023-02-16T04:19:58.964Z,-6.33
2023-02-16T04:22:27.442Z,-6.19
2023-02-16T04:24:58.933Z,-6.28
2023-02-16T04:27:29.623Z,-6.23
2023-02-16T04:29:58.065Z,-6.43
2023-02-16T04:32:26.429Z,-6.35
2023-02-16T04:34:54.771Z,-6.38
2023-02-16T04:37:24.572Z,-6.43
2023-02-16T04:39:53.049Z,-6.45
2023-02-16T04:42:22.730Z,-6.41
2023-02-16T04:44:52.341Z,-6.36
2023-02-16T04:47:21.947Z,-6.32
2023-02-16T04:49:51.446Z,-6.46
2023-02-16T04:52:20.210Z,-6.47
2023-02-16T04:54:50.125Z,-6.47
2023-02-16T04:57:24.330Z,-6.49
2023-02-16T04:59:58.299Z,-6.44
2023-02-16T05:02:26.818Z,-6.43
2023-02-16T05:04:55.466Z,-6.44
2023-02-16T05:07:26.333Z,-6.53
2023-02-16T05:09:58.501Z,-6.55
2023-02-16T05:12:44.704Z,-6.59
2023-02-16T05:15:14.311Z,-6.52
2023-02-16T05:17:42.997Z,-6.62
2023-02-16T05:20:14.683Z,-6.45
2023-02-16T05:22:44.522Z,-6.45
2023-02-16T05:25:15.355Z,-6.52
2023-02-16T05:27:44.056Z,-6.47
2023-02-16T05:30:14.192Z,-6.40
2023-02-16T05:32:42.648Z,-6.39
2023-02-16T05:35:11.091Z,-6.40
2023-02-16T05:37:42.390Z,-6.34
2023-02-16T05:40:12.338Z,-6.34
2023-02-16T05:42:43.687Z,-6.21
2023-02-16T05:45:12.053Z,-6.32
2023-02-16T05:47:43.214Z,-6.30
2023-02-16T05:50:15.617Z,-6.28
2023-02-16T05:52:43.989Z,-6.25
2023-02-16T05:55:12.349Z,-6.24
2023-02-16T05:57:42.592Z,-6.27
2023-02-16T06:00:12.199Z,-6.23
2023-02-16T06:02:43.266Z,-6.31
2023-02-16T06:05:11.826Z,-6.14
2023-02-16T06:07:41.394Z,-6.16
2023-02-16T06:10:10.660Z,-6.06
2023-02-16T06:12:39.277Z,-6.15
2023-02-16T06:15:11.116Z,-6.16
2023-02-16T06:17:39.502Z,-6.06
2023-02-16T06:20:09.364Z,-5.95
2023-02-16T06:22:37.866Z,-5.96
2023-02-16T06:25:08.972Z,-5.97
2023-02-16T06:27:40.579Z,-6.01
2023-02-16T06:30:13.671Z,-5.89
2023-02-16T06:32:44.691Z,-5.89
2023-02-16T06:35:13.160Z,-5.81
2023-02-16T06:37:41.794Z,-5.75
2023-02-16T06:40:16.775Z,-5.74
2023-02-16T06:42:45.230Z,-5.57
2023-02-16T06:45:15.630Z,-5.78
2023-02-16T06:47:44.652Z,-5.45
2023-02-16T06:50:14.695Z,-5.56
2023-02-16T06:52:43.197Z,-5.45
2023-02-16T06:55:11.651Z,-5.55
2023-02-16T06:57:42.787Z,-5.22
2023-02-16T07:00:18.610Z,-5.20
2023-02-16T07:02:49.092Z,-5.42
2023-02-16T07:05:18.714Z,-5.34
2023-02-16T07:07:47.186Z,-5.21
2023-02-16T07:10:15.628Z,-5.25
2023-02-16T07:12:43.964Z,-5.13
2023-02-16T07:15:12.487Z,-5.05
2023-02-16T07:17:42.309Z,-5.26
2023-02-16T07:20:13.329Z,-4.77
2023-02-16T07:22:41.797Z,-5.07
2023-02-16T07:25:10.459Z,-5.17
2023-02-16T07:27:42.227Z,-5.02
2023-02-16T07:30:14.763Z,-4.97
2023-02-16T07:32:47.561Z,-4.96
2023-02-16T07:35:15.997Z,-4.78
2023-02-16T07:37:46.572Z,-4.89
2023-02-16T07:40:15.399Z,-4.43
2023-02-16T07:42:43.818Z,-4.73
2023-02-16T07:45:12.264Z,-4.79
2023-02-16T07:47:40.817Z,-4.60
2023-02-16T07:50:11.423Z,-4.53
2023-02-16T07:52:42.235Z,-4.68
2023-02-16T07:55:12.182Z,-4.42
2023-02-16T07:57:46.295Z,-4.33
2023-02-16T08:00:18.371Z,-4.37
2023-02-16T08:02:46.973Z,-4.42
2023-02-16T08:05:17.156Z,-4.19
2023-02-16T08:07:46.727Z,-4.91
2023-02-16T08:10:15.902Z,-4.86
2023-02-16T08:12:44.747Z,-4.85
2023-02-16T08:15:16.006Z,-5.03
2023-02-16T08:17:44.445Z,-5.09
2023-02-16T08:20:15.783Z,-4.99
2023-02-16T08:22:45.609Z,-4.76
2023-02-16T08:25:16.240Z,-4.80
2023-02-16T08:27:44.659Z,-4.50
2023-02-16T08:30:14.510Z,-4.67
2023-02-16T08:32:43.696Z,-4.20
2023-02-16T08:35:12.942Z,-4.48
2023-02-16T08:37:45.663Z,-4.43
2023-02-16T08:40:16.535Z,-4.39
2023-02-16T08:42:44.914Z,-4.34
2023-02-16T08:45:15.287Z,-4.61
2023-02-16T08:47:44.218Z,-4.44
2023-02-16T08:50:12.733Z,-4.74
2023-02-16T08:52:41.097Z,-4.41
2023-02-16T08:55:14.135Z,-4.46
2023-02-16T08:57:42.511Z,-4.39
2023-02-16T09:00:28.905Z,-4.17
2023-02-16T09:03:02.318Z,-4.16
2023-02-16T09:05:31.218Z,-4.53
2023-02-16T09:08:01.967Z,-4.47
2023-02-16T09:10:31.775Z,-4.55
2023-02-16T09:13:00.383Z,-3.99
2023-02-16T09:15:28.942Z,-3.95
2023-02-16T09:17:59.708Z,-4.16
2023-02-16T09:20:29.150Z,-4.21
2023-02-16T09:22:57.959Z,-4.43
2023-02-16T09:25:26.417Z,-4.12
2023-02-16T09:27:57.054Z,-4.03
2023-02-16T09:30:26.160Z,-4.32
2023-02-16T09:32:55.451Z,-4.43
2023-02-16T09:35:23.807Z,-4.60
2023-02-16T09:37:52.300Z,-3.90
2023-02-16T09:40:21.289Z,-3.98
2023-02-16T09:43:05.405Z,-4.28
2023-02-16T09:45:37.100Z,-4.19
2023-02-16T09:48:06.003Z,-3.93
2023-02-16T09:50:53.486Z,-3.84
2023-02-16T09:53:34.151Z,-4.02
2023-02-16T09:56:24.400Z,-4.38
2023-02-16T09:58:58.965Z,-3.86
2023-02-16T10:01:35.291Z,-3.84
2023-02-16T10:04:17.221Z,-3.94
2023-02-16T10:06:58.642Z,-3.88
2023-02-16T10:09:29.169Z,-4.26
2023-02-16T10:12:04.235Z,-4.18
2023-02-16T10:14:43.932Z,-4.02
2023-02-16T10:17:18.491Z,-4.10
2023-02-16T10:19:50.128Z,-4.15
2023-02-16T10:22:26.651Z,-4.13
2023-02-16T10:25:01.004Z,-4.29
2023-02-16T10:27:37.987Z,-4.41
2023-02-16T10:30:15.636Z,-4.15
2023-02-16T10:32:55.698Z,-4.01
2023-02-16T10:35:30.438Z,-4.29
2023-02-16T10:38:01.076Z,-4.21
2023-02-16T10:40:36.130Z,-4.25
2023-02-16T10:43:14.501Z,-4.35
2023-02-16T10:45:51.979Z,-4.12
2023-02-16T10:48:22.051Z,-4.21
2023-02-16T10:50:57.376Z,-4.28
2023-02-16T10:53:37.356Z,-4.31
2023-02-16T10:56:27.558Z,-4.35
2023-02-16T10:58:56.715Z,-4.53
2023-02-16T11:01:33.258Z,-4.34
2023-02-16T11:04:01.835Z,-4.02
2023-02-16T11:06:30.298Z,-3.98
2023-02-16T11:09:01.103Z,-3.78
2023-02-16T11:11:31.495Z,-4.10
2023-02-16T11:14:02.608Z,-3.88
2023-02-16T11:16:33.803Z,-4.68
2023-02-16T11:19:05.064Z,-4.49
2023-02-16T11:21:46.286Z,-4.26
2023-02-16T11:24:27.128Z,-4.30
2023-02-16T11:27:23.356Z,-4.33
2023-02-16T11:29:54.741Z,-4.37
2023-02-16T11:32:24.791Z,-4.35
2023-02-16T11:34:54.032Z,-4.46
2023-02-16T11:37:27.765Z,-4.23
2023-02-16T11:39:57.600Z,-4.54
2023-02-16T11:42:30.776Z,-4.37
2023-02-16T11:45:00.882Z,-4.18
2023-02-16T11:47:32.832Z,-4.30
2023-02-16T11:50:20.424Z,-3.94
2023-02-16T11:52:51.507Z,-3.97
2023-02-16T11:55:26.881Z,-4.23
2023-02-16T11:57:57.096Z,-4.21
2023-02-16T12:00:31.849Z,-4.14
2023-02-16T12:03:14.414Z,-4.13
2023-02-16T12:05:53.250Z,-4.34
2023-02-16T12:08:38.779Z,-4.30
2023-02-16T12:11:14.584Z,-4.53
2023-02-16T12:13:46.797Z,-4.64
2023-02-16T12:16:24.574Z,-4.55
2023-02-16T12:19:05.791Z,-4.61
2023-02-16T12:21:39.360Z,-4.55
2023-02-16T12:24:15.039Z,-4.40
2023-02-16T12:26:49.301Z,-4.32
2023-02-16T12:29:30.039Z,-4.48
2023-02-16T12:32:07.415Z,-4.51
2023-02-16T12:34:55.670Z,-4.63
2023-02-16T12:37:32.651Z,-4.77
2023-02-16T12:40:07.763Z,-4.68
2023-02-16T12:42:57.660Z,-4.61
2023-02-16T12:45:29.686Z,-4.64
2023-02-16T12:48:02.002Z,-4.68
2023-02-16T12:50:38.620Z,-4.81
2023-02-16T12:53:13.656Z,-4.85
2023-02-16T12:55:46.982Z,-4.92
2023-02-16T12:58:19.161Z,-4.85
2023-02-16T13:00:54.560Z,-4.91
2023-02-16T13:03:29.187Z,-5.05
2023-02-16T13:06:01.685Z,-5.05
2023-02-16T13:08:39.002Z,-4.85
2023-02-16T13:11:13.263Z,-4.85
2023-02-16T13:13:42.867Z,-4.99
2023-02-16T13:16:28.931Z,-5.07
2023-02-16T13:18:58.793Z,-5.05
2023-02-16T13:21:51.800Z,-4.98
2023-02-16T13:24:29.280Z,-4.97
2023-02-16T13:27:08.064Z,-5.10
2023-02-16T13:30:00.522Z,-4.94
2023-02-16T13:32:50.226Z,-4.85
2023-02-16T13:35:31.012Z,-5.01
2023-02-16T13:38:08.041Z,-5.01
2023-02-16T13:41:14.940Z,-4.95
2023-02-16T13:43:45.350Z,-5.19
2023-02-16T13:46:17.928Z,-5.10
2023-02-16T13:48:49.548Z,-5.21
2023-02-16T13:51:20.816Z,-5.29
2023-02-16T13:53:55.018Z,-5.33
2023-02-16T13:56:38.168Z,-5.24
2023-02-16T13:59:58.235Z,-5.29
2023-02-16T14:03:01.002Z,-5.39
2023-02-16T14:05:33.829Z,-5.31
2023-02-16T14:08:20.753Z,-5.38
2023-02-16T14:11:08.491Z,-5.35
2023-02-16T14:13:47.445Z,-5.32
2023-02-16T14:16:33.008Z,-5.41
2023-02-16T14:19:04.400Z,-5.48
2023-02-16T14:21:41.426Z,-5.45
2023-02-16T14:24:15.020Z,-5.48
2023-02-16T14:26:56.486Z,-5.53
2023-02-16T14:29:29.268Z,-5.51
2023-02-16T14:32:01.319Z,-5.48
2023-02-16T14:34:32.038Z,-5.45
2023-02-16T14:37:29.275Z,-5.41
2023-02-16T14:40:08.366Z,-5.56
2023-02-16T14:42:38.663Z,-5.53
2023-02-16T14:45:38.870Z,-5.53
2023-02-16T14:48:17.357Z,-5.57
2023-02-16T14:50:54.411Z,-5.58
2023-02-16T14:53:58.065Z,-5.74
2023-02-16T14:56:44.516Z,-5.77
2023-02-16T14:59:25.800Z,-5.76
2023-02-16T15:01:54.420Z,-5.74
2023-02-16T15:04:29.970Z,-5.76
2023-02-16T15:07:01.518Z,-5.82
2023-02-16T15:09:33.220Z,-5.87
2023-02-16T15:12:23.057Z,-5.91
2023-02-16T15:14:57.422Z,-5.90
2023-02-16T15:17:42.826Z,-5.85
2023-02-16T15:20:21.508Z,-5.91
2023-02-16T15:22:51.339Z,-5.99
2023-02-16T15:25:28.137Z,-6.06
2023-02-16T15:28:04.528Z,-6.10
2023-02-16T15:30:35.272Z,-6.09
2023-02-16T15:33:07.095Z,-6.05
2023-02-16T15:35:38.761Z,-6.05
2023-02-16T15:38:10.643Z,-6.26
2023-02-16T15:40:40.310Z,-6.20
2023-02-16T15:43:12.011Z,-6.33
2023-02-16T15:45:42.301Z,-6.39
2023-02-16T15:48:29.423Z,-6.40
2023-02-16T15:51:03.072Z,-6.37
2023-02-16T15:53:37.049Z,-6.37
2023-02-16T15:56:21.067Z,-6.31
2023-02-16T15:58:49.609Z,-6.32
2023-02-16T16:01:31.550Z,-6.41
2023-02-16T16:04:04.004Z,-6.41
2023-02-16T16:06:37.614Z,-6.41
2023-02-16T16:09:08.747Z,-6.38
2023-02-16T16:11:38.226Z,-6.37
2023-02-16T16:14:07.765Z,-6.36
2023-02-16T16:16:38.151Z,-6.30
2023-02-16T16:19:16.514Z,-6.23
2023-02-16T16:21:51.455Z,-6.21
2023-02-16T16:24:32.738Z,-6.24
2023-02-16T16:27:04.497Z,-6.21
2023-02-16T16:29:40.855Z,-6.20
2023-02-16T16:32:20.327Z,-6.25
2023-02-16T16:34:49.366Z,-6.23
2023-02-16T16:37:26.946Z,-6.24
2023-02-16T16:40:07.615Z,-6.18
2023-02-16T16:42:39.344Z,-6.19
2023-02-16T16:45:16.774Z,-6.19
2023-02-16T16:47:50.664Z,-6.17
2023-02-16T16:50:37.218Z,-6.19
2023-02-16T16:53:39.504Z,-6.10
2023-02-16T16:56:14.952Z,-6.07
2023-02-16T16:58:50.243Z,-6.18
2023-02-16T17:01:19.356Z,-6.21
2023-02-16T17:03:49.219Z,-6.38
2023-02-16T17:06:19.108Z,-6.52
2023-02-16T17:08:48.143Z,-6.40
2023-02-16T17:11:24.784Z,-6.43
2023-02-16T17:13:54.979Z,-6.46
2023-02-16T17:16:26.257Z,-6.42
2023-02-16T17:18:56.276Z,-6.48
2023-02-16T17:21:26.027Z,-6.59
2023-02-16T17:23:54.828Z,-6.55
2023-02-16T17:26:23.221Z,-6.57
2023-02-16T17:28:51.879Z,-6.59
2023-02-16T17:31:20.553Z,-6.76
2023-02-16T17:33:49.178Z,-6.71
2023-02-16T17:36:19.739Z,-6.88
2023-02-16T17:38:49.568Z,-6.76
2023-02-16T17:41:20.675Z,-6.86
2023-02-16T17:43:49.134Z,-6.92
2023-02-16T17:46:17.822Z,-6.96
2023-02-16T17:48:46.528Z,-7.05
2023-02-16T17:51:19.188Z,-7.18
2023-02-16T17:53:50.421Z,-7.18
2023-02-16T17:56:23.799Z,-7.26
2023-02-16T17:58:54.644Z,-7.23
2023-02-16T18:01:23.328Z,-7.30
2023-02-16T18:03:53.189Z,-7.18
2023-02-16T18:06:25.917Z,-7.25
2023-02-16T18:08:56.893Z,-7.30
2023-02-16T18:11:25.554Z,-7.24
2023-02-16T18:13:53.971Z,-7.22
2023-02-16T18:16:27.405Z,-7.39
2023-02-16T18:18:57.408Z,-7.51
2023-02-16T18:21:27.159Z,-7.55
2023-02-16T18:23:57.315Z,-7.58
2023-02-16T18:26:25.778Z,-7.64
2023-02-16T18:28:54.390Z,-7.71
2023-02-16T18:31:22.932Z,-7.74
2023-02-16T18:33:51.973Z,-7.75
2023-02-16T18:36:20.346Z,-7.57
2023-02-16T18:38:48.789Z,-7.61
2023-02-16T18:41:18.703Z,-7.70
2023-02-16T18:43:47.095Z,-7.64
2023-02-16T18:46:15.560Z,-7.68
2023-02-16T18:48:44.182Z,-7.72
2023-02-16T18:51:13.238Z,-7.76
2023-02-16T18:53:41.646Z,-7.86
2023-02-16T18:56:11.605Z,-7.92
2023-02-16T18:58:41.609Z,-7.94
2023-02-16T19:01:14.936Z,-7.95
2023-02-16T19:03:43.441Z,-7.99
2023-02-16T19:06:11.960Z,-7.94
2023-02-16T19:08:40.363Z,-7.94
2023-02-16T19:11:08.826Z,-7.93
2023-02-16T19:13:37.212Z,-8.07
2023-02-16T19:16:07.998Z,-8.07
2023-02-16T19:18:36.740Z,-8.07
2023-02-16T19:21:07.445Z,-8.01
2023-02-16T19:23:36.087Z,-8.05
2023-02-16T19:26:07.508Z,-8.05
2023-02-16T19:28:36.388Z,-7.98
2023-02-16T19:31:08.121Z,-8.02
2023-02-16T19:33:36.901Z,-7.87
2023-02-16T19:36:08.591Z,-8.03
2023-02-16T19:38:37.869Z,-7.93
2023-02-16T19:41:10.591Z,-7.90
2023-02-16T19:43:39.062Z,-7.87
2023-02-16T19:46:10.699Z,-7.83
2023-02-16T19:48:39.714Z,-7.84
2023-02-16T19:51:09.325Z,-7.85
2023-02-16T19:53:39.367Z,-7.85
2023-02-16T19:56:08.416Z,-7.77
2023-02-16T19:58:37.169Z,-7.80
2023-02-16T20:01:11.617Z,-7.73
2023-02-16T20:03:40.670Z,-7.45
2023-02-16T20:06:16.993Z,-7.59
2023-02-16T20:08:46.158Z,-7.75
2023-02-16T20:11:14.896Z,-7.64
2023-02-16T20:13:46.603Z,-7.72
2023-02-16T20:16:17.408Z,-7.66
2023-02-16T20:18:46.126Z,-7.54
2023-02-16T20:21:16.886Z,-7.49
2023-02-16T20:23:45.696Z,-7.50
2023-02-16T20:26:16.436Z,-7.59
2023-02-16T20:28:45.114Z,-7.50
2023-02-16T20:31:16.481Z,-7.40
2023-02-16T20:33:45.551Z,-7.43
2023-02-16T20:36:13.995Z,-7.41
2023-02-16T20:38:44.423Z,-7.25
2023-02-16T20:41:19.403Z,-7.39
2023-02-16T20:43:48.256Z,-7.41
2023-02-16T20:46:18.660Z,-7.41
2023-02-16T20:48:50.109Z,-7.25
2023-02-16T20:51:19.305Z,-7.41
2023-02-16T20:53:47.909Z,-7.37
2023-02-16T20:56:18.689Z,-7.41
2023-02-16T20:58:50.206Z,-7.41
2023-02-16T21:01:23.087Z,-7.52
2023-02-16T21:03:54.828Z,-7.53
2023-02-16T21:06:25.920Z,-7.46
2023-02-16T21:08:55.693Z,-7.51
2023-02-16T21:11:25.610Z,-7.41
2023-02-16T21:13:56.698Z,-7.36
2023-02-16T21:16:26.950Z,-7.23
2023-02-16T21:18:55.498Z,-7.20
2023-02-16T21:21:32.589Z,-7.45
2023-02-16T21:24:00.988Z,-7.51
2023-02-16T21:26:29.495Z,-7.47
2023-02-16T21:28:58.181Z,-7.38
2023-02-16T21:31:28.284Z,-7.29
2023-02-16T21:33:56.790Z,-7.42
2023-02-16T21:36:26.998Z,-7.60
2023-02-16T21:38:55.807Z,-7.32
2023-02-16T21:41:26.005Z,-7.25
2023-02-16T21:43:55.944Z,-7.22
2023-02-16T21:46:29.656Z,-7.22
2023-02-16T21:48:59.365Z,-7.28
2023-02-16T21:51:31.026Z,-7.29
2023-02-16T21:53:59.764Z,-7.56
2023-02-16T21:56:30.863Z,-7.47
2023-02-16T21:58:59.734Z,-7.37
2023-02-16T22:01:29.917Z,-7.52
2023-02-16T22:04:00.513Z,-7.41
2023-02-16T22:06:29.998Z,-7.44
2023-02-16T22:08:58.731Z,-7.35
2023-02-16T22:11:27.169Z,-7.41
2023-02-16T22:13:56.159Z,-7.39
2023-02-16T22:16:25.289Z,-7.39
2023-02-16T22:19:00.770Z,-7.38
2023-02-16T22:21:31.113Z,-7.41
2023-02-16T22:24:00.831Z,-7.46
2023-02-16T22:26:30.690Z,-7.58
2023-02-16T22:28:59.407Z,-7.46
2023-02-16T22:31:30.463Z,-7.25
2023-02-16T22:34:03.303Z,-7.21
2023-02-16T22:36:33.349Z,-7.21
2023-02-16T22:39:01.915Z,-7.10
2023-02-16T22:41:30.732Z,-7.17
2023-02-16T22:44:00.200Z,-7.06
2023-02-16T22:46:29.522Z,-7.24
2023-02-16T22:48:59.534Z,-7.33
2023-02-16T22:51:29.452Z,-7.34
2023-02-16T22:54:02.034Z,-7.39
2023-02-16T22:56:32.347Z,-7.43
2023-02-16T22:59:01.609Z,-7.43
2023-02-16T23:01:31.013Z,-7.55
2023-02-16T23:04:01.878Z,-7.43
2023-02-16T23:06:31.719Z,-7.49
2023-02-16T23:09:07.018Z,-7.39
2023-02-16T23:11:36.058Z,-7.37
2023-02-16T23:14:04.806Z,-7.24
2023-02-16T23:16:33.365Z,-7.20
2023-02-16T23:19:02.075Z,-7.51
2023-02-16T23:21:31.953Z,-7.35
2023-02-16T23:24:03.483Z,-7.23
2023-02-16T23:26:32.705Z,-7.43
2023-02-16T23:29:02.864Z,-7.30
2023-02-16T23:31:33.349Z,-7.24
2023-02-16T23:34:02.736Z,-7.25
2023-02-16T23:36:31.425Z,-7.28
2023-02-16T23:39:02.216Z,-7.22
2023-02-16T23:41:30.975Z,-7.27
2023-02-16T23:44:01.072Z,-7.16
2023-02-16T23:46:32.949Z,-7.10
2023-02-16T23:49:01.669Z,-7.11
2023-02-16T23:51:30.089Z,-6.91
2023-02-16T23:53:58.568Z,-7.02
2023-02-16T23:56:29.880Z,-7.06
2023-02-16T23:58:59.686Z,-7.00
